Terminal Aerodrome Forecast
Issued by NWS Norman, OK

Home | Current Version | Previous Version | Text Only | Print | Product List | Glossary On
Versions: 1 2 3 4 5 6 7 8 9 10 11 12 13 14 15 16 17 18 19 20 21
000
FTUS44 KOUN 171738
TAFOKC
TAF
KOKC 171738Z 1718/1818 24010G20KT P6SM SCT040 BKN250
     FM180100 18005KT P6SM SCT120 BKN250
     FM181400 19008KT P6SM SCT200=

USA.gov is the U.S. government's official web portal to all federal, state and local government web resources and services.